sensor_id;sensor_type;location;lat;lon;timestamp;temperature;humidity
17815;DHT22;9031;50.974;11.330;2022-12-11T00:02:01;0.30;99.90
17815;DHT22;9031;50.974;11.330;2022-12-11T00:04:26;0.40;99.90
17815;DHT22;9031;50.974;11.330;2022-12-11T00:06:52;0.50;99.90
17815;DHT22;9031;50.974;11.330;2022-12-11T00:09:19;0.40;99.90
17815;DHT22;9031;50.974;11.330;2022-12-11T00:11:45;0.30;99.90
17815;DHT22;9031;50.974;11.330;2022-12-11T00:14:11;0.20;99.90
17815;DHT22;9031;50.974;11.330;2022-12-11T00:16:36;0.00;99.90
17815;DHT22;9031;50.974;11.330;2022-12-11T00:19:02;0.00;99.90
17815;DHT22;9031;50.974;11.330;2022-12-11T00:21:27;0.10;99.90
17815;DHT22;9031;50.974;11.330;2022-12-11T00:23:53;0.00;99.90
17815;DHT22;9031;50.974;11.330;2022-12-11T00:26:19;0.00;99.90
17815;DHT22;9031;50.974;11.330;2022-12-11T00:28:45;0.20;99.90
17815;DHT22;9031;50.974;11.330;2022-12-11T00:31:14;0.20;99.90
17815;DHT22;9031;50.974;11.330;2022-12-11T00:33:41;0.10;99.90
17815;DHT22;9031;50.974;11.330;2022-12-11T00:36:21;0.10;99.90
17815;DHT22;9031;50.974;11.330;2022-12-11T00:38:48;0.20;99.90
17815;DHT22;9031;50.974;11.330;2022-12-11T00:41:15;0.30;99.90
17815;DHT22;9031;50.974;11.330;2022-12-11T00:43:40;0.40;99.90
17815;DHT22;9031;50.974;11.330;2022-12-11T00:46:06;0.30;99.90
17815;DHT22;9031;50.974;11.330;2022-12-11T00:48:32;0.10;99.90
17815;DHT22;9031;50.974;11.330;2022-12-11T00:50:58;0.10;99.90
17815;DHT22;9031;50.974;11.330;2022-12-11T00:53:23;0.00;99.90
17815;DHT22;9031;50.974;11.330;2022-12-11T00:55:49;0.20;99.90
17815;DHT22;9031;50.974;11.330;2022-12-11T00:58:15;0.20;99.90
17815;DHT22;9031;50.974;11.330;2022-12-11T01:00:41;0.20;99.90
17815;DHT22;9031;50.974;11.330;2022-12-11T01:03:08;0.30;99.90
17815;DHT22;9031;50.974;11.330;2022-12-11T01:05:35;0.20;99.90
17815;DHT22;9031;50.974;11.330;2022-12-11T01:08:00;0.10;99.90
17815;DHT22;9031;50.974;11.330;2022-12-11T01:10:26;0.00;99.90
17815;DHT22;9031;50.974;11.330;2022-12-11T01:13:01;0.00;99.90
17815;DHT22;9031;50.974;11.330;2022-12-11T01:15:29;-0.10;99.90
17815;DHT22;9031;50.974;11.330;2022-12-11T01:17:55;0.00;99.90
17815;DHT22;9031;50.974;11.330;2022-12-11T01:20:22;-0.10;99.90
17815;DHT22;9031;50.974;11.330;2022-12-11T01:22:52;-0.20;99.90
17815;DHT22;9031;50.974;11.330;2022-12-11T01:25:18;0.00;99.90
17815;DHT22;9031;50.974;11.330;2022-12-11T01:27:43;0.10;99.90
17815;DHT22;9031;50.974;11.330;2022-12-11T01:30:09;0.40;99.90
17815;DHT22;9031;50.974;11.330;2022-12-11T01:32:35;0.30;99.90
17815;DHT22;9031;50.974;11.330;2022-12-11T01:35:03;0.30;99.90
17815;DHT22;9031;50.974;11.330;2022-12-11T01:37:29;0.30;99.90
17815;DHT22;9031;50.974;11.330;2022-12-11T01:39:55;0.40;99.90
17815;DHT22;9031;50.974;11.330;2022-12-11T01:42:20;0.20;99.90
17815;DHT22;9031;50.974;11.330;2022-12-11T01:47:11;0.20;99.90
17815;DHT22;9031;50.974;11.330;2022-12-11T01:49:39;0.30;99.90
17815;DHT22;9031;50.974;11.330;2022-12-11T01:52:08;0.10;99.90
17815;DHT22;9031;50.974;11.330;2022-12-11T01:54:35;0.00;99.90
17815;DHT22;9031;50.974;11.330;2022-12-11T01:57:05;0.00;99.90
17815;DHT22;9031;50.974;11.330;2022-12-11T01:59:32;0.00;99.90
17815;DHT22;9031;50.974;11.330;2022-12-11T02:02:06;0.10;99.90
17815;DHT22;9031;50.974;11.330;2022-12-11T02:04:35;0.00;99.90
17815;DHT22;9031;50.974;11.330;2022-12-11T02:07:02;-0.20;99.90
17815;DHT22;9031;50.974;11.330;2022-12-11T02:09:31;-0.10;99.90
17815;DHT22;9031;50.974;11.330;2022-12-11T02:14:40;-0.10;99.90
17815;DHT22;9031;50.974;11.330;2022-12-11T02:28:30;-0.10;99.90
17815;DHT22;9031;50.974;11.330;2022-12-11T02:31:09;-0.20;99.90
17815;DHT22;9031;50.974;11.330;2022-12-11T02:33:44;-0.40;99.90
17815;DHT22;9031;50.974;11.330;2022-12-11T02:36:13;-0.30;99.90
17815;DHT22;9031;50.974;11.330;2022-12-11T02:38:42;-0.20;99.90
17815;DHT22;9031;50.974;11.330;2022-12-11T02:41:15;-0.10;99.90
17815;DHT22;9031;50.974;11.330;2022-12-11T02:43:42;-0.10;99.90
17815;DHT22;9031;50.974;11.330;2022-12-11T02:46:08;-0.20;99.90
17815;DHT22;9031;50.974;11.330;2022-12-11T02:48:35;-0.30;99.90
17815;DHT22;9031;50.974;11.330;2022-12-11T02:51:02;-0.20;99.90
17815;DHT22;9031;50.974;11.330;2022-12-11T02:53:30;-0.10;99.90
17815;DHT22;9031;50.974;11.330;2022-12-11T02:56:05;0.00;99.90
17815;DHT22;9031;50.974;11.330;2022-12-11T02:58:33;-0.30;99.90
17815;DHT22;9031;50.974;11.330;2022-12-11T03:00:59;-0.30;99.90
17815;DHT22;9031;50.974;11.330;2022-12-11T03:03:27;-0.20;99.90
17815;DHT22;9031;50.974;11.330;2022-12-11T03:05:54;-0.20;99.90
17815;DHT22;9031;50.974;11.330;2022-12-11T03:08:20;-0.20;99.90
17815;DHT22;9031;50.974;11.330;2022-12-11T03:10:45;-0.40;99.90
17815;DHT22;9031;50.974;11.330;2022-12-11T03:13:12;-0.30;99.90
17815;DHT22;9031;50.974;11.330;2022-12-11T03:18:39;0.10;99.90
17815;DHT22;9031;50.974;11.330;2022-12-11T03:21:20;0.30;99.90
17815;DHT22;9031;50.974;11.330;2022-12-11T03:23:51;0.20;99.90
17815;DHT22;9031;50.974;11.330;2022-12-11T03:26:20;-0.20;99.90
17815;DHT22;9031;50.974;11.330;2022-12-11T03:29:02;-0.40;99.90
17815;DHT22;9031;50.974;11.330;2022-12-11T03:31:44;-0.20;99.90
17815;DHT22;9031;50.974;11.330;2022-12-11T03:34:24;-0.10;99.90
17815;DHT22;9031;50.974;11.330;2022-12-11T03:36:53;-0.20;99.90
17815;DHT22;9031;50.974;11.330;2022-12-11T03:39:32;-0.30;99.90
17815;DHT22;9031;50.974;11.330;2022-12-11T03:42:01;-0.10;99.90
17815;DHT22;9031;50.974;11.330;2022-12-11T03:44:28;0.10;99.90
17815;DHT22;9031;50.974;11.330;2022-12-11T03:46:56;0.00;99.90
17815;DHT22;9031;50.974;11.330;2022-12-11T03:49:28;0.10;99.90
17815;DHT22;9031;50.974;11.330;2022-12-11T03:51:56;0.10;99.90
17815;DHT22;9031;50.974;11.330;2022-12-11T03:54:23;0.20;99.90
17815;DHT22;9031;50.974;11.330;2022-12-11T03:56:51;0.10;99.90
17815;DHT22;9031;50.974;11.330;2022-12-11T03:59:17;0.00;99.90
17815;DHT22;9031;50.974;11.330;2022-12-11T04:01:43;-0.20;99.90
17815;DHT22;9031;50.974;11.330;2022-12-11T04:04:08;-0.30;99.90
17815;DHT22;9031;50.974;11.330;2022-12-11T04:06:34;-0.30;99.90
17815;DHT22;9031;50.974;11.330;2022-12-11T04:08:59;-0.10;99.90
17815;DHT22;9031;50.974;11.330;2022-12-11T04:11:25;0.00;99.90
17815;DHT22;9031;50.974;11.330;2022-12-11T04:14:05;0.20;99.90
17815;DHT22;9031;50.974;11.330;2022-12-11T04:16:50;0.10;99.90
17815;DHT22;9031;50.974;11.330;2022-12-11T04:19:16;-0.10;99.90
17815;DHT22;9031;50.974;11.330;2022-12-11T04:22:00;-0.10;99.90
17815;DHT22;9031;50.974;11.330;2022-12-11T04:24:58;-0.10;99.90
17815;DHT22;9031;50.974;11.330;2022-12-11T04:27:24;-0.10;99.90
17815;DHT22;9031;50.974;11.330;2022-12-11T04:30:12;-0.10;99.90
17815;DHT22;9031;50.974;11.330;2022-12-11T04:32:38;0.10;99.90
17815;DHT22;9031;50.974;11.330;2022-12-11T04:35:06;0.10;99.90
17815;DHT22;9031;50.974;11.330;2022-12-11T04:37:32;0.20;99.90
17815;DHT22;9031;50.974;11.330;2022-12-11T04:39:58;0.20;99.90
17815;DHT22;9031;50.974;11.330;2022-12-11T04:42:23;0.20;99.90
17815;DHT22;9031;50.974;11.330;2022-12-11T04:44:49;0.20;99.90
17815;DHT22;9031;50.974;11.330;2022-12-11T04:47:14;0.00;99.90
17815;DHT22;9031;50.974;11.330;2022-12-11T04:49:40;0.00;99.90
17815;DHT22;9031;50.974;11.330;2022-12-11T04:52:05;0.00;99.90
17815;DHT22;9031;50.974;11.330;2022-12-11T04:54:31;0.00;99.90
17815;DHT22;9031;50.974;11.330;2022-12-11T04:56:57;0.10;99.90
17815;DHT22;9031;50.974;11.330;2022-12-11T04:59:22;-0.10;99.90
17815;DHT22;9031;50.974;11.330;2022-12-11T05:01:48;-0.10;99.90
17815;DHT22;9031;50.974;11.330;2022-12-11T05:04:14;-0.30;99.90
17815;DHT22;9031;50.974;11.330;2022-12-11T05:06:39;-0.10;99.90
17815;DHT22;9031;50.974;11.330;2022-12-11T05:09:05;-0.10;99.90
17815;DHT22;9031;50.974;11.330;2022-12-11T05:11:31;-0.20;99.90
17815;DHT22;9031;50.974;11.330;2022-12-11T05:13:57;-0.20;99.90
17815;DHT22;9031;50.974;11.330;2022-12-11T05:16:23;-0.20;99.90
17815;DHT22;9031;50.974;11.330;2022-12-11T05:18:48;-0.10;99.90
17815;DHT22;9031;50.974;11.330;2022-12-11T05:21:14;0.00;99.90
17815;DHT22;9031;50.974;11.330;2022-12-11T05:23:40;0.10;99.90
17815;DHT22;9031;50.974;11.330;2022-12-11T05:26:10;0.10;99.90
17815;DHT22;9031;50.974;11.330;2022-12-11T05:28:38;0.10;99.90
17815;DHT22;9031;50.974;11.330;2022-12-11T05:31:07;0.00;99.90
17815;DHT22;9031;50.974;11.330;2022-12-11T05:33:32;0.10;99.90
17815;DHT22;9031;50.974;11.330;2022-12-11T05:35:58;0.10;99.90
17815;DHT22;9031;50.974;11.330;2022-12-11T05:38:24;-0.20;99.90
17815;DHT22;9031;50.974;11.330;2022-12-11T05:40:59;-0.20;99.90
17815;DHT22;9031;50.974;11.330;2022-12-11T05:43:27;-0.10;99.90
17815;DHT22;9031;50.974;11.330;2022-12-11T05:45:53;-0.10;99.90
17815;DHT22;9031;50.974;11.330;2022-12-11T05:48:19;0.00;99.90
17815;DHT22;9031;50.974;11.330;2022-12-11T05:50:54;0.10;99.90
17815;DHT22;9031;50.974;11.330;2022-12-11T05:53:20;0.10;99.90
17815;DHT22;9031;50.974;11.330;2022-12-11T05:55:45;0.10;99.90
17815;DHT22;9031;50.974;11.330;2022-12-11T05:58:10;0.00;99.90
17815;DHT22;9031;50.974;11.330;2022-12-11T06:00:36;-0.50;99.90
17815;DHT22;9031;50.974;11.330;2022-12-11T06:03:01;-0.40;99.90
17815;DHT22;9031;50.974;11.330;2022-12-11T06:05:27;-0.10;99.90
17815;DHT22;9031;50.974;11.330;2022-12-11T06:07:54;0.00;99.90
17815;DHT22;9031;50.974;11.330;2022-12-11T06:10:19;0.10;99.90
17815;DHT22;9031;50.974;11.330;2022-12-11T06:12:45;0.10;99.90
17815;DHT22;9031;50.974;11.330;2022-12-11T06:15:10;0.10;99.90
17815;DHT22;9031;50.974;11.330;2022-12-11T06:17:36;-0.10;99.90
17815;DHT22;9031;50.974;11.330;2022-12-11T06:20:01;-0.20;99.90
17815;DHT22;9031;50.974;11.330;2022-12-11T06:22:27;-0.10;99.90
17815;DHT22;9031;50.974;11.330;2022-12-11T06:24:52;-0.20;99.90
17815;DHT22;9031;50.974;11.330;2022-12-11T06:27:18;-0.30;99.90
17815;DHT22;9031;50.974;11.330;2022-12-11T06:29:43;0.00;99.90
17815;DHT22;9031;50.974;11.330;2022-12-11T06:32:10;0.00;99.90
17815;DHT22;9031;50.974;11.330;2022-12-11T06:34:35;0.00;99.90
17815;DHT22;9031;50.974;11.330;2022-12-11T06:37:01;-0.10;99.90
17815;DHT22;9031;50.974;11.330;2022-12-11T06:39:26;-0.20;99.90
17815;DHT22;9031;50.974;11.330;2022-12-11T06:41:52;-0.10;99.90
17815;DHT22;9031;50.974;11.330;2022-12-11T06:44:18;-0.10;99.90
17815;DHT22;9031;50.974;11.330;2022-12-11T06:46:44;-0.10;99.90
17815;DHT22;9031;50.974;11.330;2022-12-11T06:49:09;-0.10;99.90
17815;DHT22;9031;50.974;11.330;2022-12-11T06:51:34;-0.20;99.90
17815;DHT22;9031;50.974;11.330;2022-12-11T06:54:00;-0.10;99.90
17815;DHT22;9031;50.974;11.330;2022-12-11T06:56:25;-0.10;99.90
17815;DHT22;9031;50.974;11.330;2022-12-11T06:58:51;-0.20;99.90
17815;DHT22;9031;50.974;11.330;2022-12-11T07:01:20;-0.30;99.90
17815;DHT22;9031;50.974;11.330;2022-12-11T07:03:45;-0.10;99.90
17815;DHT22;9031;50.974;11.330;2022-12-11T07:06:12;-0.10;99.90
17815;DHT22;9031;50.974;11.330;2022-12-11T07:08:38;-0.10;99.90
17815;DHT22;9031;50.974;11.330;2022-12-11T07:11:04;-0.20;99.90
17815;DHT22;9031;50.974;11.330;2022-12-11T07:13:30;-0.20;99.90
17815;DHT22;9031;50.974;11.330;2022-12-11T07:15:57;-0.20;99.90
17815;DHT22;9031;50.974;11.330;2022-12-11T07:18:23;-0.40;99.90
17815;DHT22;9031;50.974;11.330;2022-12-11T07:20:48;-0.40;99.90
17815;DHT22;9031;50.974;11.330;2022-12-11T07:23:14;-0.40;99.90
17815;DHT22;9031;50.974;11.330;2022-12-11T07:25:39;-0.40;99.90
17815;DHT22;9031;50.974;11.330;2022-12-11T07:28:05;-0.40;99.90
17815;DHT22;9031;50.974;11.330;2022-12-11T07:30:30;-0.60;99.90
17815;DHT22;9031;50.974;11.330;2022-12-11T07:32:56;-0.50;99.90
17815;DHT22;9031;50.974;11.330;2022-12-11T07:35:21;-0.30;99.90
17815;DHT22;9031;50.974;11.330;2022-12-11T07:37:47;-0.30;99.90
17815;DHT22;9031;50.974;11.330;2022-12-11T07:40:12;-0.20;99.90
17815;DHT22;9031;50.974;11.330;2022-12-11T07:42:38;-0.30;99.90
17815;DHT22;9031;50.974;11.330;2022-12-11T07:45:04;-0.40;99.90
17815;DHT22;9031;50.974;11.330;2022-12-11T07:47:29;-0.30;99.90
17815;DHT22;9031;50.974;11.330;2022-12-11T07:49:55;-0.10;99.90
17815;DHT22;9031;50.974;11.330;2022-12-11T07:52:20;0.00;99.90
17815;DHT22;9031;50.974;11.330;2022-12-11T07:54:46;0.00;99.90
17815;DHT22;9031;50.974;11.330;2022-12-11T07:57:11;-0.10;99.90
17815;DHT22;9031;50.974;11.330;2022-12-11T07:59:37;-0.20;99.90
17815;DHT22;9031;50.974;11.330;2022-12-11T08:02:02;-0.30;99.90
17815;DHT22;9031;50.974;11.330;2022-12-11T08:04:28;-0.10;99.90
17815;DHT22;9031;50.974;11.330;2022-12-11T08:06:53;0.00;99.90
17815;DHT22;9031;50.974;11.330;2022-12-11T08:09:19;0.00;99.90
17815;DHT22;9031;50.974;11.330;2022-12-11T08:11:49;0.00;99.90
17815;DHT22;9031;50.974;11.330;2022-12-11T08:14:15;0.10;99.90
17815;DHT22;9031;50.974;11.330;2022-12-11T08:16:41;0.30;99.90
17815;DHT22;9031;50.974;11.330;2022-12-11T08:19:09;0.10;99.90
17815;DHT22;9031;50.974;11.330;2022-12-11T08:21:35;0.00;99.90
17815;DHT22;9031;50.974;11.330;2022-12-11T08:24:00;-0.20;99.90
17815;DHT22;9031;50.974;11.330;2022-12-11T08:26:28;-0.10;99.90
17815;DHT22;9031;50.974;11.330;2022-12-11T08:28:55;0.00;99.90
17815;DHT22;9031;50.974;11.330;2022-12-11T08:31:21;-0.10;99.90
17815;DHT22;9031;50.974;11.330;2022-12-11T08:33:46;0.00;99.90
17815;DHT22;9031;50.974;11.330;2022-12-11T08:36:16;0.10;99.90
17815;DHT22;9031;50.974;11.330;2022-12-11T08:38:42;0.20;99.90
17815;DHT22;9031;50.974;11.330;2022-12-11T08:41:19;0.20;99.90
17815;DHT22;9031;50.974;11.330;2022-12-11T08:43:45;0.10;99.90
17815;DHT22;9031;50.974;11.330;2022-12-11T08:46:12;0.20;99.90
17815;DHT22;9031;50.974;11.330;2022-12-11T08:48:39;0.30;99.90
17815;DHT22;9031;50.974;11.330;2022-12-11T08:51:09;0.50;99.90
17815;DHT22;9031;50.974;11.330;2022-12-11T08:53:34;0.50;99.90
17815;DHT22;9031;50.974;11.330;2022-12-11T08:56:11;0.30;99.90
17815;DHT22;9031;50.974;11.330;2022-12-11T08:58:37;0.40;99.90
17815;DHT22;9031;50.974;11.330;2022-12-11T09:01:08;0.20;99.90
17815;DHT22;9031;50.974;11.330;2022-12-11T09:03:34;0.30;99.90
17815;DHT22;9031;50.974;11.330;2022-12-11T09:06:03;0.30;99.90
17815;DHT22;9031;50.974;11.330;2022-12-11T09:08:29;0.00;99.90
17815;DHT22;9031;50.974;11.330;2022-12-11T09:10:55;0.30;99.90
17815;DHT22;9031;50.974;11.330;2022-12-11T09:13:20;0.50;99.90
17815;DHT22;9031;50.974;11.330;2022-12-11T09:15:46;0.60;99.90
17815;DHT22;9031;50.974;11.330;2022-12-11T09:18:11;0.70;99.90
17815;DHT22;9031;50.974;11.330;2022-12-11T09:20:37;0.40;99.90
17815;DHT22;9031;50.974;11.330;2022-12-11T09:23:02;0.40;99.90
17815;DHT22;9031;50.974;11.330;2022-12-11T09:25:28;0.50;99.90
17815;DHT22;9031;50.974;11.330;2022-12-11T09:27:53;0.60;99.90
17815;DHT22;9031;50.974;11.330;2022-12-11T09:30:18;0.50;99.90
17815;DHT22;9031;50.974;11.330;2022-12-11T09:32:44;0.00;99.90
17815;DHT22;9031;50.974;11.330;2022-12-11T09:35:09;-0.20;99.90
17815;DHT22;9031;50.974;11.330;2022-12-11T09:37:35;-0.10;99.90
17815;DHT22;9031;50.974;11.330;2022-12-11T09:40:01;-0.10;99.90
17815;DHT22;9031;50.974;11.330;2022-12-11T09:42:29;-0.20;99.90
17815;DHT22;9031;50.974;11.330;2022-12-11T09:44:59;-0.50;99.90
17815;DHT22;9031;50.974;11.330;2022-12-11T09:47:37;-0.30;99.90
17815;DHT22;9031;50.974;11.330;2022-12-11T09:50:24;0.10;99.90
17815;DHT22;9031;50.974;11.330;2022-12-11T09:53:03;0.00;99.90
17815;DHT22;9031;50.974;11.330;2022-12-11T09:55:38;0.10;99.90
17815;DHT22;9031;50.974;11.330;2022-12-11T09:58:26;0.20;99.90
17815;DHT22;9031;50.974;11.330;2022-12-11T10:01:08;0.20;99.90
17815;DHT22;9031;50.974;11.330;2022-12-11T10:06:34;-0.10;99.90
17815;DHT22;9031;50.974;11.330;2022-12-11T10:09:25;0.00;99.90
17815;DHT22;9031;50.974;11.330;2022-12-11T10:12:07;0.20;99.90
17815;DHT22;9031;50.974;11.330;2022-12-11T10:14:58;0.40;99.90
17815;DHT22;9031;50.974;11.330;2022-12-11T10:17:30;0.70;99.90
17815;DHT22;9031;50.974;11.330;2022-12-11T10:20:02;0.90;99.90
17815;DHT22;9031;50.974;11.330;2022-12-11T10:22:31;1.00;99.90
17815;DHT22;9031;50.974;11.330;2022-12-11T10:24:59;1.00;99.90
17815;DHT22;9031;50.974;11.330;2022-12-11T10:27:32;1.00;99.90
17815;DHT22;9031;50.974;11.330;2022-12-11T10:30:11;0.90;99.90
17815;DHT22;9031;50.974;11.330;2022-12-11T10:35:42;0.80;99.90
17815;DHT22;9031;50.974;11.330;2022-12-11T10:38:16;0.80;99.90
17815;DHT22;9031;50.974;11.330;2022-12-11T10:40:51;0.70;99.90
17815;DHT22;9031;50.974;11.330;2022-12-11T10:43:18;0.60;99.90
17815;DHT22;9031;50.974;11.330;2022-12-11T10:45:53;0.50;99.90
17815;DHT22;9031;50.974;11.330;2022-12-11T10:48:19;0.60;99.90
17815;DHT22;9031;50.974;11.330;2022-12-11T10:50:59;0.60;99.90
17815;DHT22;9031;50.974;11.330;2022-12-11T10:53:25;0.70;99.90
17815;DHT22;9031;50.974;11.330;2022-12-11T10:55:51;0.80;99.90
17815;DHT22;9031;50.974;11.330;2022-12-11T10:58:20;0.60;99.90
17815;DHT22;9031;50.974;11.330;2022-12-11T11:01:08;0.70;99.90
17815;DHT22;9031;50.974;11.330;2022-12-11T11:03:35;0.70;99.90
17815;DHT22;9031;50.974;11.330;2022-12-11T11:08:44;0.70;99.90
17815;DHT22;9031;50.974;11.330;2022-12-11T11:11:30;0.60;99.90
17815;DHT22;9031;50.974;11.330;2022-12-11T11:16:37;0.40;99.90
17815;DHT22;9031;50.974;11.330;2022-12-11T11:19:04;0.10;99.90
17815;DHT22;9031;50.974;11.330;2022-12-11T11:21:31;0.00;99.90
17815;DHT22;9031;50.974;11.330;2022-12-11T11:23:58;0.00;99.90
17815;DHT22;9031;50.974;11.330;2022-12-11T11:26:24;0.00;99.90
17815;DHT22;9031;50.974;11.330;2022-12-11T11:28:51;0.10;99.90
17815;DHT22;9031;50.974;11.330;2022-12-11T11:31:18;0.10;99.90
17815;DHT22;9031;50.974;11.330;2022-12-11T11:33:56;0.00;99.90
17815;DHT22;9031;50.974;11.330;2022-12-11T11:36:27;0.00;99.90
17815;DHT22;9031;50.974;11.330;2022-12-11T11:41:45;-0.10;99.90
17815;DHT22;9031;50.974;11.330;2022-12-11T11:44:18;-0.10;99.90
17815;DHT22;9031;50.974;11.330;2022-12-11T11:47:15;-0.10;99.90
17815;DHT22;9031;50.974;11.330;2022-12-11T11:49:59;0.10;99.90
17815;DHT22;9031;50.974;11.330;2022-12-11T11:52:46;0.00;99.90
17815;DHT22;9031;50.974;11.330;2022-12-11T11:55:20;-0.10;99.90
17815;DHT22;9031;50.974;11.330;2022-12-11T11:58:05;-0.20;99.90
17815;DHT22;9031;50.974;11.330;2022-12-11T12:00:32;-0.30;99.90
17815;DHT22;9031;50.974;11.330;2022-12-11T12:03:00;-0.30;99.90
17815;DHT22;9031;50.974;11.330;2022-12-11T12:05:49;-0.10;99.90
17815;DHT22;9031;50.974;11.330;2022-12-11T12:08:33;-0.30;99.90
17815;DHT22;9031;50.974;11.330;2022-12-11T12:11:12;-0.30;99.90
17815;DHT22;9031;50.974;11.330;2022-12-11T12:14:00;-0.30;99.90
17815;DHT22;9031;50.974;11.330;2022-12-11T12:19:36;-0.30;99.90
17815;DHT22;9031;50.974;11.330;2022-12-11T12:22:27;0.00;99.90
17815;DHT22;9031;50.974;11.330;2022-12-11T12:25:09;0.00;99.90
17815;DHT22;9031;50.974;11.330;2022-12-11T12:30:22;0.20;99.90
17815;DHT22;9031;50.974;11.330;2022-12-11T12:35:43;0.00;99.90
17815;DHT22;9031;50.974;11.330;2022-12-11T12:38:34;-0.20;99.90
17815;DHT22;9031;50.974;11.330;2022-12-11T12:41:21;0.00;99.90
17815;DHT22;9031;50.974;11.330;2022-12-11T12:46:50;0.10;99.90
17815;DHT22;9031;50.974;11.330;2022-12-11T12:51:58;0.00;99.90
17815;DHT22;9031;50.974;11.330;2022-12-11T12:54:26;0.00;99.90
17815;DHT22;9031;50.974;11.330;2022-12-11T12:56:53;0.20;99.90
17815;DHT22;9031;50.974;11.330;2022-12-11T12:59:23;0.30;99.90
17815;DHT22;9031;50.974;11.330;2022-12-11T13:01:53;0.00;99.90
17815;DHT22;9031;50.974;11.330;2022-12-11T13:04:41;-0.20;99.90
17815;DHT22;9031;50.974;11.330;2022-12-11T13:07:13;-0.10;99.90
17815;DHT22;9031;50.974;11.330;2022-12-11T13:09:40;0.10;99.90
17815;DHT22;9031;50.974;11.330;2022-12-11T13:12:13;0.00;99.90
17815;DHT22;9031;50.974;11.330;2022-12-11T13:14:38;0.00;99.90
17815;DHT22;9031;50.974;11.330;2022-12-11T13:17:06;0.00;99.90
17815;DHT22;9031;50.974;11.330;2022-12-11T13:19:33;-0.10;99.90
17815;DHT22;9031;50.974;11.330;2022-12-11T13:27:40;0.10;99.90
17815;DHT22;9031;50.974;11.330;2022-12-11T13:33:22;0.00;99.90
17815;DHT22;9031;50.974;11.330;2022-12-11T13:35:32;-0.10;99.90
17815;DHT22;9031;50.974;11.330;2022-12-11T13:38:07;-0.10;99.90
17815;DHT22;9031;50.974;11.330;2022-12-11T13:40:41;-0.20;99.90
17815;DHT22;9031;50.974;11.330;2022-12-11T13:43:17;-0.30;99.90
17815;DHT22;9031;50.974;11.330;2022-12-11T13:45:49;-0.30;99.90
17815;DHT22;9031;50.974;11.330;2022-12-11T13:48:23;-0.20;99.90
17815;DHT22;9031;50.974;11.330;2022-12-11T13:50:50;-0.20;99.90
17815;DHT22;9031;50.974;11.330;2022-12-11T13:53:18;-0.20;99.90
17815;DHT22;9031;50.974;11.330;2022-12-11T13:55:44;-0.20;99.90
17815;DHT22;9031;50.974;11.330;2022-12-11T13:58:18;-0.10;99.90
17815;DHT22;9031;50.974;11.330;2022-12-11T14:00:53;0.00;99.90
17815;DHT22;9031;50.974;11.330;2022-12-11T14:03:22;0.00;99.90
17815;DHT22;9031;50.974;11.330;2022-12-11T14:05:47;0.20;99.90
17815;DHT22;9031;50.974;11.330;2022-12-11T14:08:21;0.10;99.90
17815;DHT22;9031;50.974;11.330;2022-12-11T14:10:54;0.00;99.90
17815;DHT22;9031;50.974;11.330;2022-12-11T14:13:25;0.10;99.90
17815;DHT22;9031;50.974;11.330;2022-12-11T14:15:52;0.10;99.90
17815;DHT22;9031;50.974;11.330;2022-12-11T14:18:23;0.20;99.90
17815;DHT22;9031;50.974;11.330;2022-12-11T14:20:57;0.10;99.90
17815;DHT22;9031;50.974;11.330;2022-12-11T14:23:25;0.00;99.90
17815;DHT22;9031;50.974;11.330;2022-12-11T14:28:22;-0.10;99.90
17815;DHT22;9031;50.974;11.330;2022-12-11T14:30:55;-0.10;99.90
17815;DHT22;9031;50.974;11.330;2022-12-11T14:33:25;0.00;99.90
17815;DHT22;9031;50.974;11.330;2022-12-11T14:35:53;0.00;99.90
17815;DHT22;9031;50.974;11.330;2022-12-11T14:38:30;0.10;99.90
17815;DHT22;9031;50.974;11.330;2022-12-11T14:41:02;0.10;99.90
17815;DHT22;9031;50.974;11.330;2022-12-11T14:43:32;-0.10;99.90
17815;DHT22;9031;50.974;11.330;2022-12-11T14:46:07;-0.10;99.90
17815;DHT22;9031;50.974;11.330;2022-12-11T14:48:43;-0.10;99.90
17815;DHT22;9031;50.974;11.330;2022-12-11T14:51:14;0.10;99.90
17815;DHT22;9031;50.974;11.330;2022-12-11T14:53:43;0.00;99.90
17815;DHT22;9031;50.974;11.330;2022-12-11T14:56:17;-0.20;99.90
17815;DHT22;9031;50.974;11.330;2022-12-11T14:58:57;-0.40;99.90
17815;DHT22;9031;50.974;11.330;2022-12-11T15:01:26;-0.50;99.90
17815;DHT22;9031;50.974;11.330;2022-12-11T15:06:45;-0.40;99.90
17815;DHT22;9031;50.974;11.330;2022-12-11T15:09:36;-0.40;99.90
17815;DHT22;9031;50.974;11.330;2022-12-11T15:12:18;-0.20;99.90
17815;DHT22;9031;50.974;11.330;2022-12-11T15:14:58;-0.20;99.90
17815;DHT22;9031;50.974;11.330;2022-12-11T15:17:26;-0.40;99.90
17815;DHT22;9031;50.974;11.330;2022-12-11T15:19:55;-0.50;99.90
17815;DHT22;9031;50.974;11.330;2022-12-11T15:22:25;-0.40;99.90
17815;DHT22;9031;50.974;11.330;2022-12-11T15:24:53;-0.50;99.90
17815;DHT22;9031;50.974;11.330;2022-12-11T15:27:36;-0.50;99.90
17815;DHT22;9031;50.974;11.330;2022-12-11T15:35:37;-0.80;99.90
17815;DHT22;9031;50.974;11.330;2022-12-11T15:38:03;-0.80;99.90
17815;DHT22;9031;50.974;11.330;2022-12-11T15:40:28;-0.80;99.90
17815;DHT22;9031;50.974;11.330;2022-12-11T15:42:55;-0.70;99.90
17815;DHT22;9031;50.974;11.330;2022-12-11T15:45:23;-0.60;99.90
17815;DHT22;9031;50.974;11.330;2022-12-11T15:47:50;-0.60;99.90
17815;DHT22;9031;50.974;11.330;2022-12-11T15:50:28;-0.40;99.90
17815;DHT22;9031;50.974;11.330;2022-12-11T15:52:55;-0.50;99.90
17815;DHT22;9031;50.974;11.330;2022-12-11T15:55:22;-0.50;99.90
17815;DHT22;9031;50.974;11.330;2022-12-11T15:57:52;-0.50;99.90
17815;DHT22;9031;50.974;11.330;2022-12-11T16:00:19;-0.50;99.90
17815;DHT22;9031;50.974;11.330;2022-12-11T16:02:46;-0.40;99.90
17815;DHT22;9031;50.974;11.330;2022-12-11T16:05:11;-0.40;99.90
17815;DHT22;9031;50.974;11.330;2022-12-11T16:07:37;-0.40;99.90
17815;DHT22;9031;50.974;11.330;2022-12-11T16:10:04;-0.40;99.90
17815;DHT22;9031;50.974;11.330;2022-12-11T16:12:30;-0.40;99.90
17815;DHT22;9031;50.974;11.330;2022-12-11T16:14:55;-0.40;99.90
17815;DHT22;9031;50.974;11.330;2022-12-11T16:17:21;-0.30;99.90
17815;DHT22;9031;50.974;11.330;2022-12-11T16:19:46;-0.30;99.90
17815;DHT22;9031;50.974;11.330;2022-12-11T16:22:12;-0.30;99.90
17815;DHT22;9031;50.974;11.330;2022-12-11T16:24:39;-0.30;99.90
17815;DHT22;9031;50.974;11.330;2022-12-11T16:27:05;-0.20;99.90
17815;DHT22;9031;50.974;11.330;2022-12-11T16:29:40;-0.20;99.90
17815;DHT22;9031;50.974;11.330;2022-12-11T16:32:07;-0.30;99.90
17815;DHT22;9031;50.974;11.330;2022-12-11T16:34:34;-0.40;99.90
17815;DHT22;9031;50.974;11.330;2022-12-11T16:37:00;-0.50;99.90
17815;DHT22;9031;50.974;11.330;2022-12-11T16:39:26;-0.30;99.90
17815;DHT22;9031;50.974;11.330;2022-12-11T16:41:52;-0.30;99.90
17815;DHT22;9031;50.974;11.330;2022-12-11T16:44:20;-0.20;99.90
17815;DHT22;9031;50.974;11.330;2022-12-11T16:46:46;-0.20;99.90
17815;DHT22;9031;50.974;11.330;2022-12-11T16:49:12;-0.20;99.90
17815;DHT22;9031;50.974;11.330;2022-12-11T16:51:37;-0.20;99.90
17815;DHT22;9031;50.974;11.330;2022-12-11T16:54:03;-0.30;99.90
17815;DHT22;9031;50.974;11.330;2022-12-11T16:56:28;-0.30;99.90
17815;DHT22;9031;50.974;11.330;2022-12-11T16:58:54;-0.20;99.90